sensor_id;sensor_type;location;lat;lon;timestamp;pressure;altitude;pressure_sealevel;temperature;humidity
70256;BME280;57669;52.624;-1.688;2023-03-03T00:00:30;102391.01;;;2.80;51.74
70256;BME280;57669;52.624;-1.688;2023-03-03T00:02:57;102387.48;;;3.77;50.82
70256;BME280;57669;52.624;-1.688;2023-03-03T00:05:21;102385.67;;;3.67;50.12
70256;BME280;57669;52.624;-1.688;2023-03-03T00:07:46;102387.63;;;3.13;50.99
70256;BME280;57669;52.624;-1.688;2023-03-03T00:10:12;102389.99;;;3.20;51.29
70256;BME280;57669;52.624;-1.688;2023-03-03T00:12:45;102391.52;;;3.53;50.52
70256;BME280;57669;52.624;-1.688;2023-03-03T00:17:28;102392.92;;;3.43;51.85
70256;BME280;57669;52.624;-1.688;2023-03-03T00:19:52;102388.13;;;3.02;52.32
70256;BME280;57669;52.624;-1.688;2023-03-03T00:22:27;102386.81;;;2.77;52.98
70256;BME280;57669;52.624;-1.688;2023-03-03T00:24:42;102384.00;;;2.94;53.04
70256;BME280;57669;52.624;-1.688;2023-03-03T00:27:16;102380.25;;;2.17;53.81
70256;BME280;57669;52.624;-1.688;2023-03-03T00:29:34;102377.54;;;2.33;53.55
70256;BME280;57669;52.624;-1.688;2023-03-03T00:34:25;102383.17;;;2.35;53.53
70256;BME280;57669;52.624;-1.688;2023-03-03T00:36:49;102386.15;;;2.96;51.85
70256;BME280;57669;52.624;-1.688;2023-03-03T00:39:21;102384.73;;;3.03;52.16
70256;BME280;57669;52.624;-1.688;2023-03-03T00:41:38;102383.19;;;2.69;52.52
70256;BME280;57669;52.624;-1.688;2023-03-03T00:46:29;102379.17;;;2.90;52.07
70256;BME280;57669;52.624;-1.688;2023-03-03T00:48:53;102375.62;;;3.08;51.66
70256;BME280;57669;52.624;-1.688;2023-03-03T00:51:25;102377.37;;;3.06;50.20
70256;BME280;57669;52.624;-1.688;2023-03-03T00:53:43;102376.73;;;2.90;50.42
70256;BME280;57669;52.624;-1.688;2023-03-03T00:56:08;102372.89;;;3.05;50.95
70256;BME280;57669;52.624;-1.688;2023-03-03T00:58:33;102379.92;;;3.49;50.28
70256;BME280;57669;52.624;-1.688;2023-03-03T01:00:59;102377.22;;;2.50;51.88
70256;BME280;57669;52.624;-1.688;2023-03-03T01:03:25;102382.93;;;3.15;50.50
70256;BME280;57669;52.624;-1.688;2023-03-03T01:05:50;102380.72;;;2.72;51.45
70256;BME280;57669;52.624;-1.688;2023-03-03T01:08:14;102386.54;;;3.20;50.48
70256;BME280;57669;52.624;-1.688;2023-03-03T01:10:42;102387.98;;;2.34;52.06
70256;BME280;57669;52.624;-1.688;2023-03-03T01:13:05;102391.38;;;2.54;52.56
70256;BME280;57669;52.624;-1.688;2023-03-03T01:15:30;102395.74;;;2.32;53.20
70256;BME280;57669;52.624;-1.688;2023-03-03T01:17:55;102395.16;;;2.55;52.16
70256;BME280;57669;52.624;-1.688;2023-03-03T01:20:20;102398.28;;;2.14;53.85
70256;BME280;57669;52.624;-1.688;2023-03-03T01:22:45;102395.69;;;2.75;51.98
70256;BME280;57669;52.624;-1.688;2023-03-03T01:25:10;102399.73;;;2.42;52.97
70256;BME280;57669;52.624;-1.688;2023-03-03T01:27:35;102403.01;;;2.42;52.85
70256;BME280;57669;52.624;-1.688;2023-03-03T01:30:01;102405.82;;;2.77;52.01
70256;BME280;57669;52.624;-1.688;2023-03-03T01:32:26;102403.48;;;2.43;53.08
70256;BME280;57669;52.624;-1.688;2023-03-03T01:34:50;102406.27;;;2.86;52.52
70256;BME280;57669;52.624;-1.688;2023-03-03T01:37:15;102406.16;;;2.66;52.30
70256;BME280;57669;52.624;-1.688;2023-03-03T01:39:40;102403.56;;;3.22;51.06
70256;BME280;57669;52.624;-1.688;2023-03-03T01:42:05;102402.55;;;3.54;49.93
70256;BME280;57669;52.624;-1.688;2023-03-03T01:44:33;102400.14;;;3.58;50.25
70256;BME280;57669;52.624;-1.688;2023-03-03T01:47:02;102400.67;;;2.90;51.72
70256;BME280;57669;52.624;-1.688;2023-03-03T01:49:25;102400.42;;;2.51;52.48
70256;BME280;57669;52.624;-1.688;2023-03-03T01:51:49;102402.65;;;2.92;52.91
70256;BME280;57669;52.624;-1.688;2023-03-03T01:54:15;102399.97;;;2.02;55.03
70256;BME280;57669;52.624;-1.688;2023-03-03T01:56:36;102404.00;;;2.10;54.54
70256;BME280;57669;52.624;-1.688;2023-03-03T01:59:04;102402.54;;;1.84;54.99
70256;BME280;57669;52.624;-1.688;2023-03-03T02:01:27;102411.34;;;1.84;55.38
70256;BME280;57669;52.624;-1.688;2023-03-03T02:03:51;102405.37;;;1.65;55.25
70256;BME280;57669;52.624;-1.688;2023-03-03T02:06:19;102402.02;;;2.32;53.63
70256;BME280;57669;52.624;-1.688;2023-03-03T02:08:47;102405.39;;;2.09;54.47
70256;BME280;57669;52.624;-1.688;2023-03-03T02:11:07;102405.40;;;1.92;54.86
70256;BME280;57669;52.624;-1.688;2023-03-03T02:13:32;102406.09;;;2.03;54.94
70256;BME280;57669;52.624;-1.688;2023-03-03T02:15:57;102408.64;;;2.36;54.36
70256;BME280;57669;52.624;-1.688;2023-03-03T02:18:23;102405.55;;;2.69;53.31
70256;BME280;57669;52.624;-1.688;2023-03-03T02:20:54;102402.77;;;2.80;53.06
70256;BME280;57669;52.624;-1.688;2023-03-03T02:23:18;102406.56;;;2.77;53.16
70256;BME280;57669;52.624;-1.688;2023-03-03T02:25:43;102401.16;;;2.62;54.00
70256;BME280;57669;52.624;-1.688;2023-03-03T02:28:03;102401.23;;;3.03;52.87
70256;BME280;57669;52.624;-1.688;2023-03-03T02:30:28;102401.46;;;2.70;53.91
70256;BME280;57669;52.624;-1.688;2023-03-03T02:32:53;102401.13;;;2.95;52.94
70256;BME280;57669;52.624;-1.688;2023-03-03T02:35:27;102401.67;;;2.92;53.08
70256;BME280;57669;52.624;-1.688;2023-03-03T02:37:43;102399.81;;;2.46;53.78
70256;BME280;57669;52.624;-1.688;2023-03-03T02:40:10;102399.01;;;1.80;55.42
70256;BME280;57669;52.624;-1.688;2023-03-03T02:42:34;102397.86;;;2.52;54.16
70256;BME280;57669;52.624;-1.688;2023-03-03T02:45:00;102397.87;;;2.77;53.73
70256;BME280;57669;52.624;-1.688;2023-03-03T02:47:24;102396.29;;;2.93;53.27
70256;BME280;57669;52.624;-1.688;2023-03-03T02:49:49;102394.63;;;3.50;51.99
70256;BME280;57669;52.624;-1.688;2023-03-03T02:52:14;102395.40;;;3.77;51.61
70256;BME280;57669;52.624;-1.688;2023-03-03T02:54:39;102394.73;;;3.39;51.41
70256;BME280;57669;52.624;-1.688;2023-03-03T02:57:05;102396.08;;;3.64;50.84
70256;BME280;57669;52.624;-1.688;2023-03-03T02:59:29;102394.76;;;3.03;52.16
70256;BME280;57669;52.624;-1.688;2023-03-03T03:01:55;102391.47;;;3.57;50.73
70256;BME280;57669;52.624;-1.688;2023-03-03T03:04:22;102387.91;;;4.17;49.24
70256;BME280;57669;52.624;-1.688;2023-03-03T03:06:45;102387.37;;;3.81;49.76
70256;BME280;57669;52.624;-1.688;2023-03-03T03:09:12;102392.52;;;3.76;49.75
70256;BME280;57669;52.624;-1.688;2023-03-03T03:11:36;102394.44;;;3.20;51.12
70256;BME280;57669;52.624;-1.688;2023-03-03T03:14:01;102396.18;;;3.95;49.88
70256;BME280;57669;52.624;-1.688;2023-03-03T03:16:26;102394.52;;;3.89;49.72
70256;BME280;57669;52.624;-1.688;2023-03-03T03:18:52;102402.05;;;2.77;52.29
70256;BME280;57669;52.624;-1.688;2023-03-03T03:21:17;102400.33;;;3.46;50.87
70256;BME280;57669;52.624;-1.688;2023-03-03T03:23:42;102400.66;;;2.86;51.94
70256;BME280;57669;52.624;-1.688;2023-03-03T03:26:08;102401.28;;;3.43;50.53
70256;BME280;57669;52.624;-1.688;2023-03-03T03:28:34;102396.46;;;3.58;50.23
70256;BME280;57669;52.624;-1.688;2023-03-03T03:30:58;102398.36;;;2.82;52.01
70256;BME280;57669;52.624;-1.688;2023-03-03T03:33:24;102404.51;;;3.18;51.04
70256;BME280;57669;52.624;-1.688;2023-03-03T03:35:49;102401.26;;;3.66;50.06
70256;BME280;57669;52.624;-1.688;2023-03-03T03:38:14;102395.87;;;3.16;50.65
70256;BME280;57669;52.624;-1.688;2023-03-03T03:40:39;102395.31;;;4.02;50.41
70256;BME280;57669;52.624;-1.688;2023-03-03T03:43:05;102390.42;;;3.62;50.45
70256;BME280;57669;52.624;-1.688;2023-03-03T03:45:29;102392.54;;;3.71;49.92
70256;BME280;57669;52.624;-1.688;2023-03-03T03:47:54;102390.51;;;2.77;51.54
70256;BME280;57669;52.624;-1.688;2023-03-03T03:50:20;102390.73;;;3.40;50.25
70256;BME280;57669;52.624;-1.688;2023-03-03T03:52:45;102391.93;;;2.96;50.70
70256;BME280;57669;52.624;-1.688;2023-03-03T03:55:10;102392.38;;;2.63;52.17
70256;BME280;57669;52.624;-1.688;2023-03-03T03:57:35;102390.08;;;2.61;52.33
70256;BME280;57669;52.624;-1.688;2023-03-03T04:00:00;102390.62;;;2.86;52.11
70256;BME280;57669;52.624;-1.688;2023-03-03T04:02:25;102386.59;;;2.53;51.96
70256;BME280;57669;52.624;-1.688;2023-03-03T04:04:50;102388.12;;;1.53;53.54
70256;BME280;57669;52.624;-1.688;2023-03-03T04:07:15;102389.03;;;2.34;53.32
70256;BME280;57669;52.624;-1.688;2023-03-03T04:09:41;102384.95;;;2.59;52.00
70256;BME280;57669;52.624;-1.688;2023-03-03T04:12:06;102388.97;;;2.80;51.72
70256;BME280;57669;52.624;-1.688;2023-03-03T04:14:31;102387.28;;;2.21;52.82
70256;BME280;57669;52.624;-1.688;2023-03-03T04:16:56;102382.78;;;2.41;52.52
70256;BME280;57669;52.624;-1.688;2023-03-03T04:19:24;102385.08;;;2.43;52.33
70256;BME280;57669;52.624;-1.688;2023-03-03T04:21:47;102382.62;;;3.15;50.45
70256;BME280;57669;52.624;-1.688;2023-03-03T04:24:12;102378.50;;;3.59;49.23
70256;BME280;57669;52.624;-1.688;2023-03-03T04:26:38;102382.66;;;3.18;50.54
70256;BME280;57669;52.624;-1.688;2023-03-03T04:29:03;102383.74;;;2.96;50.48
70256;BME280;57669;52.624;-1.688;2023-03-03T04:31:29;102383.36;;;2.79;51.86
70256;BME280;57669;52.624;-1.688;2023-03-03T04:33:55;102382.51;;;2.07;52.76
70256;BME280;57669;52.624;-1.688;2023-03-03T04:36:20;102382.78;;;2.76;51.95
70256;BME280;57669;52.624;-1.688;2023-03-03T04:38:45;102384.05;;;3.32;50.96
70256;BME280;57669;52.624;-1.688;2023-03-03T04:41:10;102383.03;;;2.92;51.01
70256;BME280;57669;52.624;-1.688;2023-03-03T04:43:36;102386.15;;;3.37;50.15
70256;BME280;57669;52.624;-1.688;2023-03-03T04:46:00;102380.14;;;3.85;49.35
70256;BME280;57669;52.624;-1.688;2023-03-03T04:48:26;102380.74;;;3.82;48.90
70256;BME280;57669;52.624;-1.688;2023-03-03T04:50:52;102380.66;;;3.93;47.91
70256;BME280;57669;52.624;-1.688;2023-03-03T04:53:17;102383.26;;;3.95;47.93
70256;BME280;57669;52.624;-1.688;2023-03-03T04:55:43;102383.68;;;3.86;48.74
70256;BME280;57669;52.624;-1.688;2023-03-03T04:58:07;102390.60;;;3.04;49.90
70256;BME280;57669;52.624;-1.688;2023-03-03T05:00:32;102387.15;;;2.36;52.08
70256;BME280;57669;52.624;-1.688;2023-03-03T05:02:58;102390.07;;;2.90;51.65
70256;BME280;57669;52.624;-1.688;2023-03-03T05:05:24;102394.95;;;2.82;51.03
70256;BME280;57669;52.624;-1.688;2023-03-03T05:07:50;102395.09;;;2.89;50.69
70256;BME280;57669;52.624;-1.688;2023-03-03T05:10:15;102396.60;;;3.66;49.49
70256;BME280;57669;52.624;-1.688;2023-03-03T05:12:41;102395.22;;;3.27;50.04
70256;BME280;57669;52.624;-1.688;2023-03-03T05:15:07;102395.00;;;3.46;49.60
70256;BME280;57669;52.624;-1.688;2023-03-03T05:17:31;102391.56;;;3.75;49.03
70256;BME280;57669;52.624;-1.688;2023-03-03T05:19:57;102395.65;;;3.23;50.01
70256;BME280;57669;52.624;-1.688;2023-03-03T05:22:23;102399.12;;;3.45;49.72
70256;BME280;57669;52.624;-1.688;2023-03-03T05:24:48;102397.34;;;3.74;49.21
70256;BME280;57669;52.624;-1.688;2023-03-03T05:27:14;102393.36;;;3.83;48.80
70256;BME280;57669;52.624;-1.688;2023-03-03T05:29:39;102396.02;;;4.15;48.02
70256;BME280;57669;52.624;-1.688;2023-03-03T05:32:04;102400.09;;;4.77;47.03
70256;BME280;57669;52.624;-1.688;2023-03-03T05:34:30;102402.74;;;4.57;46.66
70256;BME280;57669;52.624;-1.688;2023-03-03T05:36:56;102402.98;;;4.63;46.24
70256;BME280;57669;52.624;-1.688;2023-03-03T05:39:21;102403.30;;;4.32;47.54
70256;BME280;57669;52.624;-1.688;2023-03-03T05:41:47;102405.48;;;4.60;46.90
70256;BME280;57669;52.624;-1.688;2023-03-03T05:44:13;102400.05;;;4.33;47.63
70256;BME280;57669;52.624;-1.688;2023-03-03T05:46:38;102394.08;;;3.61;48.78
70256;BME280;57669;52.624;-1.688;2023-03-03T05:49:04;102403.77;;;3.76;48.65
70256;BME280;57669;52.624;-1.688;2023-03-03T05:51:29;102397.16;;;3.33;48.70
70256;BME280;57669;52.624;-1.688;2023-03-03T05:53:54;102404.51;;;3.42;49.08
70256;BME280;57669;52.624;-1.688;2023-03-03T05:56:20;102401.72;;;3.08;49.65
70256;BME280;57669;52.624;-1.688;2023-03-03T05:58:45;102406.02;;;3.32;49.25
70256;BME280;57669;52.624;-1.688;2023-03-03T06:01:11;102404.47;;;3.07;50.39
70256;BME280;57669;52.624;-1.688;2023-03-03T06:03:36;102403.78;;;2.62;51.01
70256;BME280;57669;52.624;-1.688;2023-03-03T06:06:01;102399.14;;;2.29;51.45
70256;BME280;57669;52.624;-1.688;2023-03-03T06:08:26;102407.64;;;3.52;49.45
70256;BME280;57669;52.624;-1.688;2023-03-03T06:10:52;102406.62;;;3.47;49.00
70256;BME280;57669;52.624;-1.688;2023-03-03T06:13:17;102404.73;;;3.77;48.38
70256;BME280;57669;52.624;-1.688;2023-03-03T06:15:42;102406.74;;;3.29;49.40
70256;BME280;57669;52.624;-1.688;2023-03-03T06:18:08;102405.21;;;2.50;50.97
70256;BME280;57669;52.624;-1.688;2023-03-03T06:20:34;102411.93;;;2.41;52.05
70256;BME280;57669;52.624;-1.688;2023-03-03T06:22:59;102414.02;;;2.05;53.08
70256;BME280;57669;52.624;-1.688;2023-03-03T06:25:24;102407.67;;;2.43;51.84
70256;BME280;57669;52.624;-1.688;2023-03-03T06:27:49;102414.52;;;2.98;51.26
70256;BME280;57669;52.624;-1.688;2023-03-03T06:30:15;102414.87;;;3.26;49.53
70256;BME280;57669;52.624;-1.688;2023-03-03T06:32:40;102416.15;;;3.67;48.68
70256;BME280;57669;52.624;-1.688;2023-03-03T06:35:06;102415.86;;;3.45;48.76
70256;BME280;57669;52.624;-1.688;2023-03-03T06:37:32;102413.40;;;3.92;48.29
70256;BME280;57669;52.624;-1.688;2023-03-03T06:39:57;102410.00;;;3.98;47.44
70256;BME280;57669;52.624;-1.688;2023-03-03T06:42:22;102412.03;;;3.65;48.31
70256;BME280;57669;52.624;-1.688;2023-03-03T06:44:48;102413.09;;;3.80;47.95
70256;BME280;57669;52.624;-1.688;2023-03-03T06:47:14;102418.23;;;2.99;49.06
70256;BME280;57669;52.624;-1.688;2023-03-03T06:49:39;102419.19;;;3.27;48.77
70256;BME280;57669;52.624;-1.688;2023-03-03T06:52:11;102419.59;;;3.73;47.97
70256;BME280;57669;52.624;-1.688;2023-03-03T06:54:30;102425.00;;;3.65;47.95
70256;BME280;57669;52.624;-1.688;2023-03-03T06:56:59;102423.51;;;3.66;48.67
70256;BME280;57669;52.624;-1.688;2023-03-03T06:59:21;102427.11;;;3.10;49.22
70256;BME280;57669;52.624;-1.688;2023-03-03T07:01:47;102429.07;;;2.39;49.92
70256;BME280;57669;52.624;-1.688;2023-03-03T07:04:20;102431.09;;;3.27;48.86
70256;BME280;57669;52.624;-1.688;2023-03-03T07:06:36;102437.94;;;3.47;47.97
70256;BME280;57669;52.624;-1.688;2023-03-03T07:09:05;102434.29;;;3.66;47.42
70256;BME280;57669;52.624;-1.688;2023-03-03T07:11:30;102436.32;;;3.35;48.08
70256;BME280;57669;52.624;-1.688;2023-03-03T07:13:54;102436.89;;;3.18;48.47
70256;BME280;57669;52.624;-1.688;2023-03-03T07:16:22;102443.63;;;3.42;48.16
70256;BME280;57669;52.624;-1.688;2023-03-03T07:18:48;102446.00;;;3.70;48.27
70256;BME280;57669;52.624;-1.688;2023-03-03T07:21:15;102449.94;;;3.58;48.58
70256;BME280;57669;52.624;-1.688;2023-03-03T07:23:37;102449.38;;;3.71;47.79
70256;BME280;57669;52.624;-1.688;2023-03-03T07:26:00;102452.87;;;3.81;48.07
70256;BME280;57669;52.624;-1.688;2023-03-03T07:28:27;102456.05;;;3.47;47.66
70256;BME280;57669;52.624;-1.688;2023-03-03T07:30:52;102454.20;;;3.57;47.18
70256;BME280;57669;52.624;-1.688;2023-03-03T07:33:23;102458.24;;;3.71;47.34
70256;BME280;57669;52.624;-1.688;2023-03-03T07:35:43;102457.47;;;4.02;45.92
70256;BME280;57669;52.624;-1.688;2023-03-03T07:38:16;102464.91;;;3.81;46.19
70256;BME280;57669;52.624;-1.688;2023-03-03T07:40:36;102463.11;;;3.84;46.12
70256;BME280;57669;52.624;-1.688;2023-03-03T07:42:59;102465.45;;;4.08;46.03
70256;BME280;57669;52.624;-1.688;2023-03-03T07:45:26;102469.01;;;4.45;45.58
70256;BME280;57669;52.624;-1.688;2023-03-03T07:47:49;102472.51;;;3.44;47.27
70256;BME280;57669;52.624;-1.688;2023-03-03T07:50:18;102477.45;;;4.12;46.26
70256;BME280;57669;52.624;-1.688;2023-03-03T07:52:42;102476.74;;;3.61;47.01
70256;BME280;57669;52.624;-1.688;2023-03-03T07:57:35;102482.59;;;3.83;47.26
70256;BME280;57669;52.624;-1.688;2023-03-03T08:00:01;102486.06;;;3.37;47.78
70256;BME280;57669;52.624;-1.688;2023-03-03T08:02:30;102485.24;;;4.09;47.05
70256;BME280;57669;52.624;-1.688;2023-03-03T08:04:47;102485.21;;;4.26;46.53
70256;BME280;57669;52.624;-1.688;2023-03-03T08:07:16;102481.19;;;3.93;46.65
70256;BME280;57669;52.624;-1.688;2023-03-03T08:09:43;102483.15;;;3.56;47.37
70256;BME280;57669;52.624;-1.688;2023-03-03T08:14:33;102489.94;;;3.36;48.06
70256;BME280;57669;52.624;-1.688;2023-03-03T08:16:55;102492.58;;;3.36;48.14
70256;BME280;57669;52.624;-1.688;2023-03-03T08:19:20;102489.42;;;3.38;48.20
70256;BME280;57669;52.624;-1.688;2023-03-03T08:21:45;102492.49;;;2.99;49.24
70256;BME280;57669;52.624;-1.688;2023-03-03T08:24:11;102496.23;;;3.13;48.51
70256;BME280;57669;52.624;-1.688;2023-03-03T08:26:37;102496.63;;;3.22;48.58
70256;BME280;57669;52.624;-1.688;2023-03-03T08:29:02;102499.98;;;2.29;49.85
70256;BME280;57669;52.624;-1.688;2023-03-03T08:31:28;102500.58;;;2.67;50.14
70256;BME280;57669;52.624;-1.688;2023-03-03T08:33:54;102503.90;;;2.66;49.87
70256;BME280;57669;52.624;-1.688;2023-03-03T08:36:19;102503.72;;;2.78;49.30
70256;BME280;57669;52.624;-1.688;2023-03-03T08:38:44;102510.69;;;2.94;49.21
70256;BME280;57669;52.624;-1.688;2023-03-03T08:41:11;102516.04;;;2.17;50.03
70256;BME280;57669;52.624;-1.688;2023-03-03T08:43:35;102517.03;;;2.66;49.41
70256;BME280;57669;52.624;-1.688;2023-03-03T08:46:04;102519.43;;;2.68;49.00
70256;BME280;57669;52.624;-1.688;2023-03-03T08:48:28;102515.25;;;3.07;48.01
70256;BME280;57669;52.624;-1.688;2023-03-03T08:50:53;102521.40;;;3.32;47.86
70256;BME280;57669;52.624;-1.688;2023-03-03T08:53:18;102520.55;;;3.40;46.93
70256;BME280;57669;52.624;-1.688;2023-03-03T08:55:44;102517.31;;;3.32;47.61
70256;BME280;57669;52.624;-1.688;2023-03-03T08:58:09;102521.32;;;3.33;47.25
70256;BME280;57669;52.624;-1.688;2023-03-03T09:00:35;102520.88;;;3.52;47.54
70256;BME280;57669;52.624;-1.688;2023-03-03T09:03:00;102522.10;;;2.91;48.00
70256;BME280;57669;52.624;-1.688;2023-03-03T09:05:26;102523.95;;;3.42;47.82
70256;BME280;57669;52.624;-1.688;2023-03-03T09:07:52;102526.14;;;2.78;48.11
70256;BME280;57669;52.624;-1.688;2023-03-03T09:10:18;102529.51;;;3.47;47.17
70256;BME280;57669;52.624;-1.688;2023-03-03T09:12:43;102527.45;;;3.43;47.12
70256;BME280;57669;52.624;-1.688;2023-03-03T09:15:15;102529.72;;;3.70;47.16
70256;BME280;57669;52.624;-1.688;2023-03-03T09:17:34;102529.74;;;3.40;47.46
70256;BME280;57669;52.624;-1.688;2023-03-03T09:20:01;102532.29;;;3.27;47.54
70256;BME280;57669;52.624;-1.688;2023-03-03T09:22:25;102530.80;;;3.05;47.87
70256;BME280;57669;52.624;-1.688;2023-03-03T09:24:51;102532.33;;;3.22;48.09
70256;BME280;57669;52.624;-1.688;2023-03-03T09:27:18;102531.94;;;2.73;47.78
70256;BME280;57669;52.624;-1.688;2023-03-03T09:29:40;102534.01;;;3.17;47.38
70256;BME280;57669;52.624;-1.688;2023-03-03T09:32:19;102534.19;;;3.37;46.92
70256;BME280;57669;52.624;-1.688;2023-03-03T09:34:37;102531.31;;;3.63;47.15
70256;BME280;57669;52.624;-1.688;2023-03-03T09:36:56;102532.88;;;2.61;47.82
70256;BME280;57669;52.624;-1.688;2023-03-03T09:39:23;102539.22;;;3.77;46.21
70256;BME280;57669;52.624;-1.688;2023-03-03T09:41:58;102540.55;;;3.75;45.99
70256;BME280;57669;52.624;-1.688;2023-03-03T09:44:23;102542.61;;;4.09;45.69
70256;BME280;57669;52.624;-1.688;2023-03-03T09:46:46;102539.63;;;4.00;45.20
70256;BME280;57669;52.624;-1.688;2023-03-03T09:49:13;102538.80;;;4.46;45.35
70256;BME280;57669;52.624;-1.688;2023-03-03T09:54:05;102539.61;;;3.69;46.01
70256;BME280;57669;52.624;-1.688;2023-03-03T09:56:24;102539.02;;;3.81;46.09
70256;BME280;57669;52.624;-1.688;2023-03-03T09:58:55;102537.55;;;3.89;46.20
70256;BME280;57669;52.624;-1.688;2023-03-03T10:01:26;102537.80;;;3.40;46.86
70256;BME280;57669;52.624;-1.688;2023-03-03T10:03:46;102537.52;;;3.72;46.60
70256;BME280;57669;52.624;-1.688;2023-03-03T10:06:02;102539.28;;;4.66;44.86
70256;BME280;57669;52.624;-1.688;2023-03-03T10:08:36;102537.12;;;4.57;44.42
70256;BME280;57669;52.624;-1.688;2023-03-03T10:11:01;102534.99;;;3.76;45.11
70256;BME280;57669;52.624;-1.688;2023-03-03T10:13:28;102541.51;;;3.88;45.27
70256;BME280;57669;52.624;-1.688;2023-03-03T10:15:49;102539.09;;;3.66;46.01
70256;BME280;57669;52.624;-1.688;2023-03-03T10:18:15;102541.35;;;4.40;44.98
70256;BME280;57669;52.624;-1.688;2023-03-03T10:20:44;102544.15;;;4.08;44.83
70256;BME280;57669;52.624;-1.688;2023-03-03T10:23:07;102546.48;;;3.34;45.38
70256;BME280;57669;52.624;-1.688;2023-03-03T10:25:34;102546.01;;;4.32;44.97
70256;BME280;57669;52.624;-1.688;2023-03-03T10:28:01;102547.78;;;3.77;45.80
70256;BME280;57669;52.624;-1.688;2023-03-03T10:30:22;102548.85;;;4.19;45.29
70256;BME280;57669;52.624;-1.688;2023-03-03T10:32:46;102547.78;;;4.09;45.15
70256;BME280;57669;52.624;-1.688;2023-03-03T10:35:17;102550.13;;;4.38;45.03
70256;BME280;57669;52.624;-1.688;2023-03-03T10:37:39;102546.49;;;4.00;45.13
70256;BME280;57669;52.624;-1.688;2023-03-03T10:40:06;102552.20;;;4.09;45.29
70256;BME280;57669;52.624;-1.688;2023-03-03T10:42:35;102552.09;;;3.94;45.10
70256;BME280;57669;52.624;-1.688;2023-03-03T10:44:59;102554.13;;;4.31;44.63
70256;BME280;57669;52.624;-1.688;2023-03-03T10:47:26;102551.81;;;3.97;44.41
70256;BME280;57669;52.624;-1.688;2023-03-03T10:49:50;102552.72;;;3.85;45.36
70256;BME280;57669;52.624;-1.688;2023-03-03T10:52:16;102553.17;;;3.97;45.68
70256;BME280;57669;52.624;-1.688;2023-03-03T10:54:40;102555.18;;;4.04;45.20
70256;BME280;57669;52.624;-1.688;2023-03-03T10:57:00;102554.21;;;3.66;46.37
70256;BME280;57669;52.624;-1.688;2023-03-03T10:59:33;102554.76;;;3.32;47.26
70256;BME280;57669;52.624;-1.688;2023-03-03T11:01:50;102557.23;;;4.09;46.59
70256;BME280;57669;52.624;-1.688;2023-03-03T11:04:21;102555.23;;;3.88;46.62
70256;BME280;57669;52.624;-1.688;2023-03-03T11:06:39;102559.88;;;3.72;46.66
70256;BME280;57669;52.624;-1.688;2023-03-03T11:09:05;102560.24;;;3.09;47.21
70256;BME280;57669;52.624;-1.688;2023-03-03T11:11:31;102569.59;;;3.10;47.51
70256;BME280;57669;52.624;-1.688;2023-03-03T11:13:53;102568.16;;;3.51;46.95
70256;BME280;57669;52.624;-1.688;2023-03-03T11:16:23;102572.55;;;3.79;46.47
70256;BME280;57669;52.624;-1.688;2023-03-03T11:18:49;102573.67;;;3.78;46.29
70256;BME280;57669;52.624;-1.688;2023-03-03T11:21:12;102576.50;;;3.58;46.78
70256;BME280;57669;52.624;-1.688;2023-03-03T11:23:40;102577.32;;;3.57;46.39
70256;BME280;57669;52.624;-1.688;2023-03-03T11:26:06;102579.57;;;3.34;46.90
70256;BME280;57669;52.624;-1.688;2023-03-03T11:28:30;102577.73;;;3.55;46.34
70256;BME280;57669;52.624;-1.688;2023-03-03T11:30:57;102579.71;;;3.25;47.64
70256;BME280;57669;52.624;-1.688;2023-03-03T11:33:16;102581.60;;;3.85;46.46
70256;BME280;57669;52.624;-1.688;2023-03-03T11:35:43;102585.46;;;3.19;47.16
70256;BME280;57669;52.624;-1.688;2023-03-03T11:38:13;102583.12;;;3.67;45.93
70256;BME280;57669;52.624;-1.688;2023-03-03T11:40:34;102586.29;;;4.07;45.32
70256;BME280;57669;52.624;-1.688;2023-03-03T11:43:01;102586.98;;;4.60;44.79
70256;BME280;57669;52.624;-1.688;2023-03-03T11:45:21;102585.54;;;4.44;43.80
70256;BME280;57669;52.624;-1.688;2023-03-03T11:47:51;102585.88;;;4.10;44.46
70256;BME280;57669;52.624;-1.688;2023-03-03T11:50:15;102587.38;;;4.71;43.59
70256;BME280;57669;52.624;-1.688;2023-03-03T11:52:40;102589.07;;;4.70;43.63
70256;BME280;57669;52.624;-1.688;2023-03-03T11:55:05;102579.69;;;5.75;42.56
70256;BME280;57669;52.624;-1.688;2023-03-03T11:57:28;102576.25;;;5.33;41.75
70256;BME280;57669;52.624;-1.688;2023-03-03T11:59:57;102584.63;;;5.79;41.78
70256;BME280;57669;52.624;-1.688;2023-03-03T12:02:30;102577.34;;;5.58;41.77
70256;BME280;57669;52.624;-1.688;2023-03-03T12:04:46;102580.15;;;5.66;41.79
70256;BME280;57669;52.624;-1.688;2023-03-03T12:07:18;102577.64;;;5.19;41.85
70256;BME280;57669;52.624;-1.688;2023-03-03T12:09:39;102578.60;;;5.20;42.54
70256;BME280;57669;52.624;-1.688;2023-03-03T12:12:03;102577.35;;;5.02;42.55
70256;BME280;57669;52.624;-1.688;2023-03-03T12:14:35;102580.12;;;4.82;43.39
70256;BME280;57669;52.624;-1.688;2023-03-03T12:16:55;102578.05;;;5.51;41.79
70256;BME280;57669;52.624;-1.688;2023-03-03T12:19:23;102577.35;;;5.35;42.09
70256;BME280;57669;52.624;-1.688;2023-03-03T12:21:49;102576.46;;;5.23;42.03
70256;BME280;57669;52.624;-1.688;2023-03-03T12:24:18;102576.33;;;5.32;42.28
70256;BME280;57669;52.624;-1.688;2023-03-03T12:26:35;102572.36;;;5.37;42.12
70256;BME280;57669;52.624;-1.688;2023-03-03T12:29:01;102579.54;;;5.80;41.16
70256;BME280;57669;52.624;-1.688;2023-03-03T12:31:31;102571.96;;;5.90;41.56
70256;BME280;57669;52.624;-1.688;2023-03-03T12:33:52;102574.98;;;5.54;42.30
70256;BME280;57669;52.624;-1.688;2023-03-03T12:36:26;102569.16;;;5.31;41.69
70256;BME280;57669;52.624;-1.688;2023-03-03T12:38:41;102570.86;;;5.93;41.76
70256;BME280;57669;52.624;-1.688;2023-03-03T12:41:07;102565.96;;;5.17;42.56
70256;BME280;57669;52.624;-1.688;2023-03-03T12:43:40;102566.74;;;4.94;43.71
70256;BME280;57669;52.624;-1.688;2023-03-03T12:45:59;102562.68;;;4.75;43.19
70256;BME280;57669;52.624;-1.688;2023-03-03T12:48:23;102562.45;;;5.07;42.54
70256;BME280;57669;52.624;-1.688;2023-03-03T12:50:53;102557.27;;;4.87;43.03
70256;BME280;57669;52.624;-1.688;2023-03-03T12:53:20;102555.29;;;4.28;42.87